West Corners, New York
Current Conditions -  °F | °C
As of 10:53 AM on Friday 24 Oct 2014 (Local Time) from KBGM Reporting Station
Clear Clear  
Wind Chill: 52°   Ceiling: Unl
Heat Index: 52°   Visibility: 10mi
Dew Point: 41°   Wind: 14mph
Humidity: 66%   Direction: 320°NW
Pressure: 29.9"   Gusts: 23mph
Location:  42.1332°N, 76.0798°W
Report Text: KBGM 241453Z 32012G20KT 10SM CLR 11/05 A2990 RMK AO2 SLP130 T01110050 50000
Loading
Personal Weather Stations






























Interactive Weather Map New forecast layout! Learn more

10-Day Weather Forecast

Advertisements
Track Severe Weather on mobile